Terminal Aerodrome Forecast
Issued by NWS

Home | Current Version | Previous Version | Graphics & Text | Print | Product List | Glossary On
Versions: 1 2 3 4 5 6 7 8 9 10 11 12 13 14 15 16 17 18 19 20 21 22 23 24 25 26 27 28
000
FTUS43 KGRB 251735
TAFRHI
TAF
KRHI 251735Z 2518/2618 28010G15KT P6SM OVC012
      TEMPO 2518/2522 -RA
     FM260000 31006KT P6SM OVC014
     FM261000 VRB02KT 4SM BR BKN015
     FM261400 32004KT P6SM SCT020=

USA.gov is the U.S. government's official web portal to all federal, state and local government web resources and services.